sensor_id;sensor_type;location;lat;lon;timestamp;temperature;humidity
30148;DHT22;16960;49.404;8.248;2023-05-14T00:02:23;21.60;47.10
30148;DHT22;16960;49.404;8.248;2023-05-14T00:04:50;21.60;47.10
30148;DHT22;16960;49.404;8.248;2023-05-14T00:07:17;21.60;47.10
30148;DHT22;16960;49.404;8.248;2023-05-14T00:09:43;21.60;47.10
30148;DHT22;16960;49.404;8.248;2023-05-14T00:12:10;21.60;47.10
30148;DHT22;16960;49.404;8.248;2023-05-14T00:14:37;21.60;47.20
30148;DHT22;16960;49.404;8.248;2023-05-14T00:17:04;21.60;47.10
30148;DHT22;16960;49.404;8.248;2023-05-14T00:19:32;21.60;47.10
30148;DHT22;16960;49.404;8.248;2023-05-14T00:21:59;21.50;47.10
30148;DHT22;16960;49.404;8.248;2023-05-14T00:24:26;21.50;47.10
30148;DHT22;16960;49.404;8.248;2023-05-14T00:26:53;21.50;47.10
30148;DHT22;16960;49.404;8.248;2023-05-14T00:29:20;21.50;47.10
30148;DHT22;16960;49.404;8.248;2023-05-14T00:31:47;21.50;47.00
30148;DHT22;16960;49.404;8.248;2023-05-14T00:34:14;21.50;47.00
30148;DHT22;16960;49.404;8.248;2023-05-14T00:36:42;21.50;47.00
30148;DHT22;16960;49.404;8.248;2023-05-14T00:39:09;21.50;47.00
30148;DHT22;16960;49.404;8.248;2023-05-14T00:41:37;21.50;47.00
30148;DHT22;16960;49.404;8.248;2023-05-14T00:44:04;21.50;47.00
30148;DHT22;16960;49.404;8.248;2023-05-14T00:46:31;21.50;47.00
30148;DHT22;16960;49.404;8.248;2023-05-14T00:48:58;21.50;47.00
30148;DHT22;16960;49.404;8.248;2023-05-14T00:51:25;21.50;47.00
30148;DHT22;16960;49.404;8.248;2023-05-14T00:53:54;21.40;46.90
30148;DHT22;16960;49.404;8.248;2023-05-14T00:56:21;21.50;47.10
30148;DHT22;16960;49.404;8.248;2023-05-14T00:58:48;21.50;47.10
30148;DHT22;16960;49.404;8.248;2023-05-14T01:01:15;21.40;47.00
30148;DHT22;16960;49.404;8.248;2023-05-14T01:03:42;21.40;47.00
30148;DHT22;16960;49.404;8.248;2023-05-14T01:06:14;21.40;47.00
30148;DHT22;16960;49.404;8.248;2023-05-14T01:08:52;21.40;47.00
30148;DHT22;16960;49.404;8.248;2023-05-14T01:11:27;21.40;47.00
30148;DHT22;16960;49.404;8.248;2023-05-14T01:14:02;21.40;47.00
30148;DHT22;16960;49.404;8.248;2023-05-14T01:16:32;21.40;47.00
30148;DHT22;16960;49.404;8.248;2023-05-14T01:19:01;21.40;47.00
30148;DHT22;16960;49.404;8.248;2023-05-14T01:21:38;21.40;47.00
30148;DHT22;16960;49.404;8.248;2023-05-14T01:24:06;21.40;47.00
30148;DHT22;16960;49.404;8.248;2023-05-14T01:26:34;21.40;47.00
30148;DHT22;16960;49.404;8.248;2023-05-14T01:29:07;21.40;47.10
30148;DHT22;16960;49.404;8.248;2023-05-14T01:31:38;21.30;47.10
30148;DHT22;16960;49.404;8.248;2023-05-14T01:34:07;21.30;47.10
30148;DHT22;16960;49.404;8.248;2023-05-14T01:36:36;21.30;47.10
30148;DHT22;16960;49.404;8.248;2023-05-14T01:39:05;21.30;47.10
30148;DHT22;16960;49.404;8.248;2023-05-14T01:41:34;21.30;47.10
30148;DHT22;16960;49.404;8.248;2023-05-14T01:44:09;21.30;47.10
30148;DHT22;16960;49.404;8.248;2023-05-14T01:46:36;21.30;47.10
30148;DHT22;16960;49.404;8.248;2023-05-14T01:49:03;21.30;47.10
30148;DHT22;16960;49.404;8.248;2023-05-14T01:51:30;21.30;47.10
30148;DHT22;16960;49.404;8.248;2023-05-14T01:53:58;21.30;47.10
30148;DHT22;16960;49.404;8.248;2023-05-14T01:56:25;21.30;47.10
30148;DHT22;16960;49.404;8.248;2023-05-14T01:58:52;21.30;47.10
30148;DHT22;16960;49.404;8.248;2023-05-14T02:01:20;21.30;47.10
30148;DHT22;16960;49.404;8.248;2023-05-14T02:03:47;21.30;47.10
30148;DHT22;16960;49.404;8.248;2023-05-14T02:06:14;21.30;47.10
30148;DHT22;16960;49.404;8.248;2023-05-14T02:08:41;21.30;47.10
30148;DHT22;16960;49.404;8.248;2023-05-14T02:11:09;21.30;47.00
30148;DHT22;16960;49.404;8.248;2023-05-14T02:13:36;21.30;47.00
30148;DHT22;16960;49.404;8.248;2023-05-14T02:16:04;21.30;47.00
30148;DHT22;16960;49.404;8.248;2023-05-14T02:18:31;21.30;47.10
30148;DHT22;16960;49.404;8.248;2023-05-14T02:20:58;21.30;47.20
30148;DHT22;16960;49.404;8.248;2023-05-14T02:23:24;21.30;47.30
30148;DHT22;16960;49.404;8.248;2023-05-14T02:25:51;21.30;47.40
30148;DHT22;16960;49.404;8.248;2023-05-14T02:28:20;21.30;47.40
30148;DHT22;16960;49.404;8.248;2023-05-14T02:30:46;21.30;47.60
30148;DHT22;16960;49.404;8.248;2023-05-14T02:33:13;21.30;47.50
30148;DHT22;16960;49.404;8.248;2023-05-14T02:35:40;21.20;47.40
30148;DHT22;16960;49.404;8.248;2023-05-14T02:38:07;21.20;47.30
30148;DHT22;16960;49.404;8.248;2023-05-14T02:40:35;21.30;47.40
30148;DHT22;16960;49.404;8.248;2023-05-14T02:43:02;21.30;47.40
30148;DHT22;16960;49.404;8.248;2023-05-14T02:45:32;21.20;47.30
30148;DHT22;16960;49.404;8.248;2023-05-14T02:47:59;21.20;47.30
30148;DHT22;16960;49.404;8.248;2023-05-14T02:50:26;21.20;47.20
30148;DHT22;16960;49.404;8.248;2023-05-14T02:52:52;21.20;47.20
30148;DHT22;16960;49.404;8.248;2023-05-14T02:55:20;21.20;47.20
30148;DHT22;16960;49.404;8.248;2023-05-14T02:57:47;21.20;47.20
30148;DHT22;16960;49.404;8.248;2023-05-14T03:00:14;21.20;47.20
30148;DHT22;16960;49.404;8.248;2023-05-14T03:02:43;21.20;47.10
30148;DHT22;16960;49.404;8.248;2023-05-14T03:05:10;21.20;47.10
30148;DHT22;16960;49.404;8.248;2023-05-14T03:07:37;21.20;47.10
30148;DHT22;16960;49.404;8.248;2023-05-14T03:10:04;21.20;47.10
30148;DHT22;16960;49.404;8.248;2023-05-14T03:12:31;21.20;47.90
30148;DHT22;16960;49.404;8.248;2023-05-14T03:14:58;21.20;47.10
30148;DHT22;16960;49.404;8.248;2023-05-14T03:17:25;21.20;47.10
30148;DHT22;16960;49.404;8.248;2023-05-14T03:19:53;21.20;47.10
30148;DHT22;16960;49.404;8.248;2023-05-14T03:22:20;21.20;47.10
30148;DHT22;16960;49.404;8.248;2023-05-14T03:24:47;21.20;47.10
30148;DHT22;16960;49.404;8.248;2023-05-14T03:27:14;21.20;47.20
30148;DHT22;16960;49.404;8.248;2023-05-14T03:29:41;21.20;47.20
30148;DHT22;16960;49.404;8.248;2023-05-14T03:32:08;21.20;47.20
30148;DHT22;16960;49.404;8.248;2023-05-14T03:34:35;21.20;47.20
30148;DHT22;16960;49.404;8.248;2023-05-14T03:37:04;21.10;47.20
30148;DHT22;16960;49.404;8.248;2023-05-14T03:39:31;21.10;47.20
30148;DHT22;16960;49.404;8.248;2023-05-14T03:41:58;21.10;47.20
30148;DHT22;16960;49.404;8.248;2023-05-14T03:44:25;21.20;47.20
30148;DHT22;16960;49.404;8.248;2023-05-14T03:46:52;21.10;47.20
30148;DHT22;16960;49.404;8.248;2023-05-14T03:49:19;21.20;47.90
30148;DHT22;16960;49.404;8.248;2023-05-14T03:51:46;21.10;47.20
30148;DHT22;16960;49.404;8.248;2023-05-14T03:54:19;21.10;47.20
30148;DHT22;16960;49.404;8.248;2023-05-14T03:56:46;21.10;47.10
30148;DHT22;16960;49.404;8.248;2023-05-14T03:59:13;21.10;47.20
30148;DHT22;16960;49.404;8.248;2023-05-14T04:01:40;21.10;47.10
30148;DHT22;16960;49.404;8.248;2023-05-14T04:04:07;21.10;47.10
30148;DHT22;16960;49.404;8.248;2023-05-14T04:06:43;21.10;47.00
30148;DHT22;16960;49.404;8.248;2023-05-14T04:09:19;21.10;47.00
30148;DHT22;16960;49.404;8.248;2023-05-14T04:11:46;21.00;46.90
30148;DHT22;16960;49.404;8.248;2023-05-14T04:14:13;21.10;47.00
30148;DHT22;16960;49.404;8.248;2023-05-14T04:16:40;21.10;47.00
30148;DHT22;16960;49.404;8.248;2023-05-14T04:19:07;21.10;47.00
30148;DHT22;16960;49.404;8.248;2023-05-14T04:21:34;21.10;47.00
30148;DHT22;16960;49.404;8.248;2023-05-14T04:24:01;21.10;47.00
30148;DHT22;16960;49.404;8.248;2023-05-14T04:26:29;21.10;47.00
30148;DHT22;16960;49.404;8.248;2023-05-14T04:28:56;21.10;47.00
30148;DHT22;16960;49.404;8.248;2023-05-14T04:31:27;21.00;46.90
30148;DHT22;16960;49.404;8.248;2023-05-14T04:33:54;21.00;46.90
30148;DHT22;16960;49.404;8.248;2023-05-14T04:36:21;21.00;46.90
30148;DHT22;16960;49.404;8.248;2023-05-14T04:38:48;21.00;46.90
30148;DHT22;16960;49.404;8.248;2023-05-14T04:41:15;21.00;46.90
30148;DHT22;16960;49.404;8.248;2023-05-14T04:43:43;21.00;46.90
30148;DHT22;16960;49.404;8.248;2023-05-14T04:46:10;21.00;46.90
30148;DHT22;16960;49.404;8.248;2023-05-14T04:48:38;21.00;46.80
30148;DHT22;16960;49.404;8.248;2023-05-14T04:51:05;21.00;46.90
30148;DHT22;16960;49.404;8.248;2023-05-14T04:53:32;21.00;46.90
30148;DHT22;16960;49.404;8.248;2023-05-14T04:55:59;21.00;46.90
30148;DHT22;16960;49.404;8.248;2023-05-14T04:58:26;21.00;46.90
30148;DHT22;16960;49.404;8.248;2023-05-14T05:00:55;21.00;46.90
30148;DHT22;16960;49.404;8.248;2023-05-14T05:03:22;21.00;46.90
30148;DHT22;16960;49.404;8.248;2023-05-14T05:05:48;21.00;46.80
30148;DHT22;16960;49.404;8.248;2023-05-14T05:08:16;21.00;46.80
30148;DHT22;16960;49.404;8.248;2023-05-14T05:10:43;20.90;46.80
30148;DHT22;16960;49.404;8.248;2023-05-14T05:13:10;21.00;46.90
30148;DHT22;16960;49.404;8.248;2023-05-14T05:15:37;21.00;46.90
30148;DHT22;16960;49.404;8.248;2023-05-14T05:18:05;20.90;46.90
30148;DHT22;16960;49.404;8.248;2023-05-14T05:20:32;20.90;46.90
30148;DHT22;16960;49.404;8.248;2023-05-14T05:22:59;21.00;46.90
30148;DHT22;16960;49.404;8.248;2023-05-14T05:25:26;20.90;46.90
30148;DHT22;16960;49.404;8.248;2023-05-14T05:27:53;20.90;46.90
30148;DHT22;16960;49.404;8.248;2023-05-14T05:30:20;20.90;47.00
30148;DHT22;16960;49.404;8.248;2023-05-14T05:32:47;20.90;47.00
30148;DHT22;16960;49.404;8.248;2023-05-14T05:35:15;20.90;47.00
30148;DHT22;16960;49.404;8.248;2023-05-14T05:37:42;20.90;47.00
30148;DHT22;16960;49.404;8.248;2023-05-14T05:40:10;20.90;47.00
30148;DHT22;16960;49.404;8.248;2023-05-14T05:42:38;20.90;47.00
30148;DHT22;16960;49.404;8.248;2023-05-14T05:45:06;20.90;47.00
30148;DHT22;16960;49.404;8.248;2023-05-14T05:47:33;20.90;47.00
30148;DHT22;16960;49.404;8.248;2023-05-14T05:50:00;20.90;47.00
30148;DHT22;16960;49.404;8.248;2023-05-14T05:52:28;20.90;47.00
30148;DHT22;16960;49.404;8.248;2023-05-14T05:54:55;20.90;47.00
30148;DHT22;16960;49.404;8.248;2023-05-14T05:57:22;20.90;47.00
30148;DHT22;16960;49.404;8.248;2023-05-14T05:59:51;20.90;47.00
30148;DHT22;16960;49.404;8.248;2023-05-14T06:02:19;20.90;47.00
30148;DHT22;16960;49.404;8.248;2023-05-14T06:04:45;20.90;47.00
30148;DHT22;16960;49.404;8.248;2023-05-14T06:07:13;20.90;46.90
30148;DHT22;16960;49.404;8.248;2023-05-14T06:09:41;20.90;46.90
30148;DHT22;16960;49.404;8.248;2023-05-14T06:12:08;20.90;46.90
30148;DHT22;16960;49.404;8.248;2023-05-14T06:14:35;20.90;46.90
30148;DHT22;16960;49.404;8.248;2023-05-14T06:17:02;20.90;46.90
30148;DHT22;16960;49.404;8.248;2023-05-14T06:19:29;20.90;46.90
30148;DHT22;16960;49.404;8.248;2023-05-14T06:21:56;20.90;46.80
30148;DHT22;16960;49.404;8.248;2023-05-14T06:24:23;20.90;46.80
30148;DHT22;16960;49.404;8.248;2023-05-14T06:26:51;20.90;46.90
30148;DHT22;16960;49.404;8.248;2023-05-14T06:29:18;20.90;46.90
30148;DHT22;16960;49.404;8.248;2023-05-14T06:31:45;20.90;46.90
30148;DHT22;16960;49.404;8.248;2023-05-14T06:34:12;20.90;46.90
30148;DHT22;16960;49.404;8.248;2023-05-14T06:36:39;20.90;46.90
30148;DHT22;16960;49.404;8.248;2023-05-14T06:39:06;20.90;46.80
30148;DHT22;16960;49.404;8.248;2023-05-14T06:41:33;20.90;46.80
30148;DHT22;16960;49.404;8.248;2023-05-14T06:44:01;20.90;46.70
30148;DHT22;16960;49.404;8.248;2023-05-14T06:46:28;20.90;46.80
30148;DHT22;16960;49.404;8.248;2023-05-14T06:48:55;20.90;46.90
30148;DHT22;16960;49.404;8.248;2023-05-14T06:51:22;20.90;46.90
30148;DHT22;16960;49.404;8.248;2023-05-14T06:53:48;20.90;47.00
30148;DHT22;16960;49.404;8.248;2023-05-14T06:56:17;20.90;47.00
30148;DHT22;16960;49.404;8.248;2023-05-14T06:58:43;20.90;47.00
30148;DHT22;16960;49.404;8.248;2023-05-14T07:01:12;20.90;47.00
30148;DHT22;16960;49.404;8.248;2023-05-14T07:03:39;20.90;47.20
30148;DHT22;16960;49.404;8.248;2023-05-14T07:06:06;21.00;47.20
30148;DHT22;16960;49.404;8.248;2023-05-14T07:08:33;21.00;47.10
30148;DHT22;16960;49.404;8.248;2023-05-14T07:11:00;21.00;47.10
30148;DHT22;16960;49.404;8.248;2023-05-14T07:13:27;21.00;47.00
30148;DHT22;16960;49.404;8.248;2023-05-14T07:15:54;21.00;47.00
30148;DHT22;16960;49.404;8.248;2023-05-14T07:18:22;21.00;47.00
30148;DHT22;16960;49.404;8.248;2023-05-14T07:20:49;21.00;47.00
30148;DHT22;16960;49.404;8.248;2023-05-14T07:23:16;21.00;46.90
30148;DHT22;16960;49.404;8.248;2023-05-14T07:25:43;21.00;46.90
30148;DHT22;16960;49.404;8.248;2023-05-14T07:28:10;21.10;47.70
30148;DHT22;16960;49.404;8.248;2023-05-14T07:30:37;21.00;46.80
30148;DHT22;16960;49.404;8.248;2023-05-14T07:33:04;21.00;46.80
30148;DHT22;16960;49.404;8.248;2023-05-14T07:35:32;21.00;46.70
30148;DHT22;16960;49.404;8.248;2023-05-14T07:37:59;21.00;46.70
30148;DHT22;16960;49.404;8.248;2023-05-14T07:40:26;21.10;46.80
30148;DHT22;16960;49.404;8.248;2023-05-14T07:42:53;21.00;46.70
30148;DHT22;16960;49.404;8.248;2023-05-14T07:45:20;21.00;46.70
30148;DHT22;16960;49.404;8.248;2023-05-14T07:47:47;21.10;46.80
30148;DHT22;16960;49.404;8.248;2023-05-14T07:50:16;21.00;46.60
30148;DHT22;16960;49.404;8.248;2023-05-14T07:52:44;21.10;46.80
30148;DHT22;16960;49.404;8.248;2023-05-14T07:55:11;21.00;46.70
30148;DHT22;16960;49.404;8.248;2023-05-14T07:57:39;21.00;46.70
30148;DHT22;16960;49.404;8.248;2023-05-14T08:00:06;21.00;46.80
30148;DHT22;16960;49.404;8.248;2023-05-14T08:02:34;21.00;46.90
30148;DHT22;16960;49.404;8.248;2023-05-14T08:05:01;21.00;46.90
30148;DHT22;16960;49.404;8.248;2023-05-14T08:07:29;21.00;46.80
30148;DHT22;16960;49.404;8.248;2023-05-14T08:09:57;21.00;46.80
30148;DHT22;16960;49.404;8.248;2023-05-14T08:12:24;21.10;46.80
30148;DHT22;16960;49.404;8.248;2023-05-14T08:14:51;21.10;46.70
30148;DHT22;16960;49.404;8.248;2023-05-14T08:17:18;21.10;46.90
30148;DHT22;16960;49.404;8.248;2023-05-14T08:19:45;21.20;46.80
30148;DHT22;16960;49.404;8.248;2023-05-14T08:22:12;21.20;46.70
30148;DHT22;16960;49.404;8.248;2023-05-14T08:24:39;21.20;46.50
30148;DHT22;16960;49.404;8.248;2023-05-14T08:27:08;21.30;46.50
30148;DHT22;16960;49.404;8.248;2023-05-14T08:29:35;21.30;46.40
30148;DHT22;16960;49.404;8.248;2023-05-14T08:32:03;21.30;46.40
30148;DHT22;16960;49.404;8.248;2023-05-14T08:34:30;21.30;46.50
30148;DHT22;16960;49.404;8.248;2023-05-14T08:36:57;21.30;46.50
30148;DHT22;16960;49.404;8.248;2023-05-14T08:39:24;21.40;46.30
30148;DHT22;16960;49.404;8.248;2023-05-14T08:41:51;21.40;46.60
30148;DHT22;16960;49.404;8.248;2023-05-14T08:44:20;21.40;46.50
30148;DHT22;16960;49.404;8.248;2023-05-14T08:46:51;21.50;46.40
30148;DHT22;16960;49.404;8.248;2023-05-14T08:49:28;21.50;46.30
30148;DHT22;16960;49.404;8.248;2023-05-14T08:51:57;21.60;46.40
30148;DHT22;16960;49.404;8.248;2023-05-14T08:54:25;21.60;46.30
30148;DHT22;16960;49.404;8.248;2023-05-14T08:56:53;21.70;46.20
30148;DHT22;16960;49.404;8.248;2023-05-14T08:59:21;21.70;46.10
30148;DHT22;16960;49.404;8.248;2023-05-14T09:01:51;21.80;46.00
30148;DHT22;16960;49.404;8.248;2023-05-14T09:04:21;21.80;45.90
30148;DHT22;16960;49.404;8.248;2023-05-14T09:06:49;21.90;45.90
30148;DHT22;16960;49.404;8.248;2023-05-14T09:09:18;21.90;45.80
30148;DHT22;16960;49.404;8.248;2023-05-14T09:11:47;22.00;45.90
30148;DHT22;16960;49.404;8.248;2023-05-14T09:14:14;22.00;45.90
30148;DHT22;16960;49.404;8.248;2023-05-14T09:16:44;22.00;45.50
30148;DHT22;16960;49.404;8.248;2023-05-14T09:19:12;22.00;45.30
30148;DHT22;16960;49.404;8.248;2023-05-14T09:21:40;22.00;45.00
30148;DHT22;16960;49.404;8.248;2023-05-14T09:24:07;22.10;44.80
30148;DHT22;16960;49.404;8.248;2023-05-14T09:26:34;22.10;44.80
30148;DHT22;16960;49.404;8.248;2023-05-14T09:29:01;22.10;44.90
30148;DHT22;16960;49.404;8.248;2023-05-14T09:31:28;22.20;44.80
30148;DHT22;16960;49.404;8.248;2023-05-14T09:33:58;22.20;44.60
30148;DHT22;16960;49.404;8.248;2023-05-14T09:36:25;22.20;44.30
30148;DHT22;16960;49.404;8.248;2023-05-14T09:38:52;22.20;44.20
30148;DHT22;16960;49.404;8.248;2023-05-14T09:41:21;22.20;44.40
30148;DHT22;16960;49.404;8.248;2023-05-14T09:43:49;22.30;44.40
30148;DHT22;16960;49.404;8.248;2023-05-14T09:46:16;22.30;45.00
30148;DHT22;16960;49.404;8.248;2023-05-14T09:48:44;22.30;44.20
30148;DHT22;16960;49.404;8.248;2023-05-14T09:51:13;22.40;44.20
30148;DHT22;16960;49.404;8.248;2023-05-14T09:53:42;22.40;43.90
30148;DHT22;16960;49.404;8.248;2023-05-14T09:56:09;22.40;43.70
30148;DHT22;16960;49.404;8.248;2023-05-14T09:58:36;22.50;44.00
30148;DHT22;16960;49.404;8.248;2023-05-14T10:01:03;22.50;43.70
30148;DHT22;16960;49.404;8.248;2023-05-14T10:03:31;22.60;43.40
30148;DHT22;16960;49.404;8.248;2023-05-14T10:06:01;22.60;43.30
30148;DHT22;16960;49.404;8.248;2023-05-14T10:08:33;22.70;43.50
30148;DHT22;16960;49.404;8.248;2023-05-14T10:11:03;22.70;43.00
30148;DHT22;16960;49.404;8.248;2023-05-14T10:13:36;22.70;42.80
30148;DHT22;16960;49.404;8.248;2023-05-14T10:16:07;22.70;42.80
30148;DHT22;16960;49.404;8.248;2023-05-14T10:18:39;22.70;42.90
30148;DHT22;16960;49.404;8.248;2023-05-14T10:21:07;22.80;43.10
30148;DHT22;16960;49.404;8.248;2023-05-14T10:23:38;22.90;43.20
30148;DHT22;16960;49.404;8.248;2023-05-14T10:26:05;22.90;43.00
30148;DHT22;16960;49.404;8.248;2023-05-14T10:28:33;22.90;43.00
30148;DHT22;16960;49.404;8.248;2023-05-14T10:31:01;23.00;43.00
30148;DHT22;16960;49.404;8.248;2023-05-14T10:33:27;23.00;43.00
30148;DHT22;16960;49.404;8.248;2023-05-14T10:35:56;23.10;43.00
30148;DHT22;16960;49.404;8.248;2023-05-14T10:38:25;23.10;43.50
30148;DHT22;16960;49.404;8.248;2023-05-14T10:40:59;23.10;42.50
30148;DHT22;16960;49.404;8.248;2023-05-14T10:43:27;23.10;42.60
30148;DHT22;16960;49.404;8.248;2023-05-14T10:45:55;23.10;42.60
30148;DHT22;16960;49.404;8.248;2023-05-14T10:48:23;23.10;42.60
30148;DHT22;16960;49.404;8.248;2023-05-14T10:50:52;23.10;42.50
30148;DHT22;16960;49.404;8.248;2023-05-14T10:53:19;23.10;42.60
30148;DHT22;16960;49.404;8.248;2023-05-14T10:55:46;23.00;43.00
30148;DHT22;16960;49.404;8.248;2023-05-14T10:58:15;23.00;43.30
30148;DHT22;16960;49.404;8.248;2023-05-14T11:00:46;23.10;43.40
30148;DHT22;16960;49.404;8.248;2023-05-14T11:03:14;23.10;42.80
30148;DHT22;16960;49.404;8.248;2023-05-14T11:05:42;23.10;42.80
30148;DHT22;16960;49.404;8.248;2023-05-14T11:08:11;23.10;42.60
30148;DHT22;16960;49.404;8.248;2023-05-14T11:10:38;23.10;42.60
30148;DHT22;16960;49.404;8.248;2023-05-14T11:13:06;23.10;42.50
30148;DHT22;16960;49.404;8.248;2023-05-14T11:15:34;23.20;42.70
30148;DHT22;16960;49.404;8.248;2023-05-14T11:18:01;23.10;42.50
30148;DHT22;16960;49.404;8.248;2023-05-14T11:20:28;23.20;42.30
30148;DHT22;16960;49.404;8.248;2023-05-14T11:22:57;23.20;42.20
30148;DHT22;16960;49.404;8.248;2023-05-14T11:25:24;23.10;42.00
30148;DHT22;16960;49.404;8.248;2023-05-14T11:27:51;23.20;42.00
30148;DHT22;16960;49.404;8.248;2023-05-14T11:30:23;23.10;42.20
30148;DHT22;16960;49.404;8.248;2023-05-14T11:32:51;23.20;42.20
30148;DHT22;16960;49.404;8.248;2023-05-14T11:35:18;23.10;42.30
30148;DHT22;16960;49.404;8.248;2023-05-14T11:37:49;23.10;42.30
30148;DHT22;16960;49.404;8.248;2023-05-14T11:40:17;23.10;42.30
30148;DHT22;16960;49.404;8.248;2023-05-14T11:42:44;23.20;42.50
30148;DHT22;16960;49.404;8.248;2023-05-14T11:45:11;23.20;42.60
30148;DHT22;16960;49.404;8.248;2023-05-14T11:47:40;23.20;42.50
30148;DHT22;16960;49.404;8.248;2023-05-14T11:50:09;23.20;42.50
30148;DHT22;16960;49.404;8.248;2023-05-14T11:52:37;23.30;42.60
30148;DHT22;16960;49.404;8.248;2023-05-14T11:55:06;23.20;42.40
30148;DHT22;16960;49.404;8.248;2023-05-14T11:57:35;23.30;42.50
30148;DHT22;16960;49.404;8.248;2023-05-14T12:00:06;23.30;42.60
30148;DHT22;16960;49.404;8.248;2023-05-14T12:02:33;23.20;42.50
30148;DHT22;16960;49.404;8.248;2023-05-14T12:05:01;23.30;42.70
30148;DHT22;16960;49.404;8.248;2023-05-14T12:07:30;23.30;42.70
30148;DHT22;16960;49.404;8.248;2023-05-14T12:10:00;23.30;42.70
30148;DHT22;16960;49.404;8.248;2023-05-14T12:12:32;23.30;42.70
30148;DHT22;16960;49.404;8.248;2023-05-14T12:15:00;23.40;42.70
30148;DHT22;16960;49.404;8.248;2023-05-14T12:17:26;23.40;42.70
30148;DHT22;16960;49.404;8.248;2023-05-14T12:19:56;23.40;42.60
30148;DHT22;16960;49.404;8.248;2023-05-14T12:22:23;23.50;42.70
30148;DHT22;16960;49.404;8.248;2023-05-14T12:24:55;23.50;42.60
30148;DHT22;16960;49.404;8.248;2023-05-14T12:27:22;23.50;42.60
30148;DHT22;16960;49.404;8.248;2023-05-14T12:29:57;23.50;42.60
30148;DHT22;16960;49.404;8.248;2023-05-14T12:32:24;23.50;42.60
30148;DHT22;16960;49.404;8.248;2023-05-14T12:34:51;23.60;42.50
30148;DHT22;16960;49.404;8.248;2023-05-14T12:37:18;23.60;42.50
30148;DHT22;16960;49.404;8.248;2023-05-14T12:39:45;23.60;42.60
30148;DHT22;16960;49.404;8.248;2023-05-14T12:42:13;23.60;42.70
30148;DHT22;16960;49.404;8.248;2023-05-14T12:44:40;23.70;42.80
30148;DHT22;16960;49.404;8.248;2023-05-14T12:47:07;23.70;42.70
30148;DHT22;16960;49.404;8.248;2023-05-14T12:49:34;23.80;42.60
30148;DHT22;16960;49.404;8.248;2023-05-14T12:52:01;23.80;42.60
30148;DHT22;16960;49.404;8.248;2023-05-14T12:54:28;23.90;42.60
30148;DHT22;16960;49.404;8.248;2023-05-14T12:56:56;23.90;42.00
30148;DHT22;16960;49.404;8.248;2023-05-14T12:59:24;23.90;42.30
30148;DHT22;16960;49.404;8.248;2023-05-14T13:01:51;24.00;42.30
30148;DHT22;16960;49.404;8.248;2023-05-14T13:04:18;24.00;42.30
30148;DHT22;16960;49.404;8.248;2023-05-14T13:06:45;24.10;42.30
30148;DHT22;16960;49.404;8.248;2023-05-14T13:09:12;24.10;42.20
30148;DHT22;16960;49.404;8.248;2023-05-14T13:11:39;24.20;42.20
30148;DHT22;16960;49.404;8.248;2023-05-14T13:14:06;24.20;42.10
30148;DHT22;16960;49.404;8.248;2023-05-14T13:16:34;24.20;42.00
30148;DHT22;16960;49.404;8.248;2023-05-14T13:19:01;24.30;42.20
30148;DHT22;16960;49.404;8.248;2023-05-14T13:21:28;24.30;42.80
30148;DHT22;16960;49.404;8.248;2023-05-14T13:23:55;24.20;41.90
30148;DHT22;16960;49.404;8.248;2023-05-14T13:26:22;24.20;42.60
30148;DHT22;16960;49.404;8.248;2023-05-14T13:28:51;24.20;42.00
30148;DHT22;16960;49.404;8.248;2023-05-14T13:31:18;24.10;42.00
30148;DHT22;16960;49.404;8.248;2023-05-14T13:33:46;24.10;42.10
30148;DHT22;16960;49.404;8.248;2023-05-14T13:36:14;24.10;42.10
30148;DHT22;16960;49.404;8.248;2023-05-14T13:38:40;24.10;42.10
30148;DHT22;16960;49.404;8.248;2023-05-14T13:41:07;24.20;42.10
30148;DHT22;16960;49.404;8.248;2023-05-14T13:43:34;24.20;42.00
30148;DHT22;16960;49.404;8.248;2023-05-14T13:46:03;24.20;41.90
30148;DHT22;16960;49.404;8.248;2023-05-14T13:48:30;24.30;42.00
30148;DHT22;16960;49.404;8.248;2023-05-14T13:50:58;24.30;42.60
30148;DHT22;16960;49.404;8.248;2023-05-14T13:53:25;24.30;41.90
30148;DHT22;16960;49.404;8.248;2023-05-14T13:55:52;24.30;41.90
30148;DHT22;16960;49.404;8.248;2023-05-14T13:58:21;24.40;41.90
30148;DHT22;16960;49.404;8.248;2023-05-14T14:00:48;24.40;41.90
30148;DHT22;16960;49.404;8.248;2023-05-14T14:03:15;24.40;41.80
30148;DHT22;16960;49.404;8.248;2023-05-14T14:05:43;24.40;41.80
30148;DHT22;16960;49.404;8.248;2023-05-14T14:08:11;24.50;42.10
30148;DHT22;16960;49.404;8.248;2023-05-14T14:10:38;24.50;41.70
30148;DHT22;16960;49.404;8.248;2023-05-14T14:13:06;24.50;41.70
30148;DHT22;16960;49.404;8.248;2023-05-14T14:15:34;24.50;41.60
30148;DHT22;16960;49.404;8.248;2023-05-14T14:18:01;24.60;41.50
30148;DHT22;16960;49.404;8.248;2023-05-14T14:20:27;24.60;41.40
30148;DHT22;16960;49.404;8.248;2023-05-14T14:22:55;24.60;41.50
30148;DHT22;16960;49.404;8.248;2023-05-14T14:25:24;24.60;41.50
30148;DHT22;16960;49.404;8.248;2023-05-14T14:27:51;24.60;41.80
30148;DHT22;16960;49.404;8.248;2023-05-14T14:30:18;24.60;42.00
30148;DHT22;16960;49.404;8.248;2023-05-14T14:32:44;24.50;41.70
30148;DHT22;16960;49.404;8.248;2023-05-14T14:35:12;24.50;41.60
30148;DHT22;16960;49.404;8.248;2023-05-14T14:37:40;24.50;41.60
30148;DHT22;16960;49.404;8.248;2023-05-14T14:40:10;24.50;41.60
30148;DHT22;16960;49.404;8.248;2023-05-14T14:42:38;24.50;41.50
30148;DHT22;16960;49.404;8.248;2023-05-14T14:45:06;24.50;41.50
30148;DHT22;16960;49.404;8.248;2023-05-14T14:47:34;24.50;41.60
30148;DHT22;16960;49.404;8.248;2023-05-14T14:50:01;24.50;41.50
30148;DHT22;16960;49.404;8.248;2023-05-14T14:52:28;24.60;41.50
30148;DHT22;16960;49.404;8.248;2023-05-14T14:54:55;24.50;41.50
30148;DHT22;16960;49.404;8.248;2023-05-14T14:57:22;24.50;41.30
30148;DHT22;16960;49.404;8.248;2023-05-14T14:59:50;24.50;41.30
30148;DHT22;16960;49.404;8.248;2023-05-14T15:02:17;24.50;41.30
30148;DHT22;16960;49.404;8.248;2023-05-14T15:04:44;24.50;41.40
30148;DHT22;16960;49.404;8.248;2023-05-14T15:07:11;24.50;41.50
30148;DHT22;16960;49.404;8.248;2023-05-14T15:09:40;24.50;41.60
30148;DHT22;16960;49.404;8.248;2023-05-14T15:12:07;24.40;41.50
30148;DHT22;16960;49.404;8.248;2023-05-14T15:14:35;24.40;41.50
30148;DHT22;16960;49.404;8.248;2023-05-14T15:17:03;24.50;41.90
30148;DHT22;16960;49.404;8.248;2023-05-14T15:19:30;24.50;41.70
30148;DHT22;16960;49.404;8.248;2023-05-14T15:21:57;24.50;41.50
30148;DHT22;16960;49.404;8.248;2023-05-14T15:24:24;24.50;41.40
30148;DHT22;16960;49.404;8.248;2023-05-14T15:26:51;24.60;41.40
30148;DHT22;16960;49.404;8.248;2023-05-14T15:29:18;24.60;41.60
30148;DHT22;16960;49.404;8.248;2023-05-14T15:31:45;24.60;41.50
30148;DHT22;16960;49.404;8.248;2023-05-14T15:34:13;24.60;41.50